Weather at UNFICYP OP51 Helipad

Public forecast

Using degrees Celsius for public forecast. Weather courtesy of forecast.io.

Closest aviation weather report (METAR) to UNFICYP OP51 Helipad

Closest report is Nicosia (Lefkoşa) Ercan International Airport, 9.5 nm (17.6 km) E.

2024/06/16 21:50 (retrieved 15 minutes ago)

LCEN 162150Z 24005KT 9999 FEW015 25/21 Q1007 NOSIG

Closest aviation forecast (TAF) to UNFICYP OP51 Helipad

Closest forecast is Nicosia (Lefkoşa) Ercan International Airport, 9.5 nm (17.6 km) E.

2024/06/16 18:03 (retrieved 4 hours ago)

TAF TAF LCEN 161640Z 1618/1718 28015KT 9999 FEW020 TEMPO 1618/1621 28012KT 3000 BR BKN015 TEMPO 1621/1624 VRB02KT 1200 BCFG BKN010 TEMPO 1700/1704 VRB02KT 0100 FG VV001 TEMPO 1704/1707 12012KT 5000 BR BKN015 BECMG 1707/1710 16015KT 9999 FEW020